Terminal Aerodrome Forecast
Issued by NWS

Home | Current Version | Previous Version | Graphics & Text | Print | Product List | Glossary On
Versions: 1 2 3 4 5 6 7 8 9 10 11 12 13 14
000
FTUS43 KTOP 232300
TAFFOE
TAF
KFOE 232330Z 2400/2424 31013KT P6SM -RA OVC012
     FM240500 34015G22KT 4SM -RASN BR OVC007
     FM241200 32013G20KT P6SM OVC008
     FM241700 32012KT P6SM OVC016
     FM242300 29010KT P6SM SCT025=

USA.gov is the U.S. government's official web portal to all federal, state and local government web resources and services.